Time;durP1;ratioP1;P1;durP2;ratioP2;P2;SDS_P1;SDS_P2;PMS_P1;PMS_P2;Temp;Humidity;BMP_temperature;BMP_pressure;BME280_temperature;BME280_humidity;BME280_pressure;Samples;Min_cycle;Max_cycle;Signal;HPM_P1;HPM_P2
2021/11/24 00:01:30;;;;;;;5.33;2.97;;;13.40;99.90;;;;;;5050977;28;20729;-62
2021/11/24 00:03:56;;;;;;;3.33;2.80;;;13.30;99.90;;;;;;5061850;28;20705;-63
2021/11/24 00:06:23;;;;;;;5.83;3.53;;;13.20;99.90;;;;;;5063834;28;20194;-62
2021/11/24 00:08:49;;;;;;;6.70;3.73;;;13.20;99.90;;;;;;5065011;28;20206;-63
2021/11/24 00:11:16;;;;;;;5.03;3.70;;;13.30;99.90;;;;;;5070012;28;20183;-63
2021/11/24 00:13:42;;;;;;;7.30;3.67;;;13.30;99.90;;;;;;5068393;28;20217;-62
2021/11/24 00:16:09;;;;;;;6.80;3.77;;;13.30;99.90;;;;;;5069776;28;20855;-61
2021/11/24 00:18:35;;;;;;;4.70;3.60;;;13.40;99.90;;;;;;5066167;28;20201;-63
2021/11/24 00:21:03;;;;;;;5.93;4.03;;;13.40;99.90;;;;;;5059921;28;20213;-63
2021/11/24 00:23:29;;;;;;;7.57;3.70;;;13.40;99.90;;;;;;5059667;28;20301;-62
2021/11/24 00:25:56;;;;;;;8.63;4.20;;;13.40;99.90;;;;;;5060214;28;23291;-63
2021/11/24 00:28:22;;;;;;;8.40;3.87;;;13.40;99.90;;;;;;5079620;28;20223;-63
2021/11/24 00:30:48;;;;;;;5.67;4.00;;;13.50;99.90;;;;;;5068544;28;20277;-63
2021/11/24 00:33:15;;;;;;;5.67;3.63;;;13.50;99.90;;;;;;5066645;28;20699;-62
2021/11/24 00:35:41;;;;;;;4.87;3.80;;;13.40;99.90;;;;;;5059023;28;20188;-63
2021/11/24 00:38:07;;;;;;;5.97;3.67;;;13.40;99.90;;;;;;5076149;28;20275;-62
2021/11/24 00:40:33;;;;;;;6.47;3.47;;;13.50;99.90;;;;;;5065106;28;20195;-62
2021/11/24 00:43:00;;;;;;;6.00;3.40;;;13.50;99.90;;;;;;5056446;28;20585;-62
2021/11/24 00:45:26;;;;;;;6.77;3.30;;;13.60;99.90;;;;;;5060361;28;20874;-63
2021/11/24 00:47:52;;;;;;;4.47;3.27;;;13.60;99.90;;;;;;5057112;28;20199;-63
2021/11/24 00:50:18;;;;;;;7.27;3.10;;;13.70;99.90;;;;;;5059204;28;20188;-64
2021/11/24 00:52:45;;;;;;;9.40;3.43;;;13.70;99.90;;;;;;5061661;28;20195;-64
2021/11/24 00:55:11;;;;;;;6.17;3.30;;;13.70;99.90;;;;;;5057175;28;20188;-64
2021/11/24 00:57:37;;;;;;;5.63;3.20;;;13.70;99.90;;;;;;5053528;28;20244;-64
2021/11/24 01:00:06;;;;;;;7.00;3.27;;;13.70;99.90;;;;;;5057731;28;20732;-63
2021/11/24 01:02:32;;;;;;;6.33;3.00;;;13.70;99.90;;;;;;5063489;28;20194;-64
2021/11/24 01:04:58;;;;;;;7.83;3.30;;;13.70;99.90;;;;;;5058556;28;20215;-63
2021/11/24 01:07:24;;;;;;;6.17;2.97;;;13.70;99.90;;;;;;5062330;28;20187;-63
2021/11/24 01:09:52;;;;;;;6.37;2.90;;;13.70;99.90;;;;;;5059037;28;20198;-60
2021/11/24 01:12:22;;;;;;;6.83;2.90;;;13.70;99.90;;;;;;5064399;28;20186;-62
2021/11/24 01:14:48;;;;;;;7.90;2.83;;;13.80;99.90;;;;;;5060680;28;20221;-61
2021/11/24 01:17:14;;;;;;;6.30;3.10;;;13.80;99.90;;;;;;5065214;28;20191;-62
2021/11/24 01:19:41;;;;;;;6.63;3.10;;;13.90;99.90;;;;;;5056436;28;20916;-61
2021/11/24 01:22:08;;;;;;;5.73;2.87;;;13.90;99.90;;;;;;5057822;28;20210;-61
2021/11/24 01:24:34;;;;;;;7.47;3.17;;;13.90;99.90;;;;;;5058055;28;20186;-61
2021/11/24 01:27:00;;;;;;;4.53;3.00;;;13.90;99.90;;;;;;5051958;28;20225;-62
2021/11/24 01:29:27;;;;;;;9.47;2.80;;;13.90;99.90;;;;;;5061546;28;20214;-63
2021/11/24 01:31:53;;;;;;;5.70;3.00;;;13.90;99.90;;;;;;5063178;28;20209;-62
2021/11/24 01:34:19;;;;;;;6.17;3.20;;;13.90;99.90;;;;;;5062949;28;20970;-61
2021/11/24 01:36:45;;;;;;;11.10;3.10;;;13.90;99.90;;;;;;5053669;28;20195;-62
2021/11/24 01:39:12;;;;;;;9.60;2.83;;;13.90;99.90;;;;;;5050423;28;20271;-62
2021/11/24 01:41:38;;;;;;;7.93;2.77;;;14.00;99.90;;;;;;5055640;28;20191;-63
2021/11/24 01:44:05;;;;;;;6.90;2.87;;;14.00;99.90;;;;;;5057514;28;20210;-63
2021/11/24 01:46:31;;;;;;;8.43;2.83;;;14.00;99.90;;;;;;5063033;28;20783;-61
2021/11/24 01:48:58;;;;;;;4.80;3.00;;;14.00;99.90;;;;;;5064435;28;20656;-63
2021/11/24 01:51:24;;;;;;;6.93;2.97;;;14.00;99.90;;;;;;5062430;28;20190;-62
2021/11/24 01:53:50;;;;;;;7.50;2.97;;;14.00;99.90;;;;;;5058115;28;20197;-62
2021/11/24 01:56:17;;;;;;;3.63;2.50;;;14.00;99.90;;;;;;5055796;28;20197;-62
2021/11/24 01:58:45;;;;;;;4.67;2.93;;;13.90;99.90;;;;;;5004945;28;1573536;-61
2021/11/24 02:01:11;;;;;;;4.43;2.67;;;13.90;99.90;;;;;;5058244;28;20230;-62
2021/11/24 02:03:37;;;;;;;4.87;3.33;;;13.90;99.90;;;;;;5057559;28;20287;-63
2021/11/24 02:06:04;;;;;;;6.07;2.97;;;13.90;99.90;;;;;;5054371;28;20201;-63
2021/11/24 02:08:30;;;;;;;3.83;2.73;;;13.90;99.90;;;;;;5052790;28;20239;-62
2021/11/24 02:10:58;;;;;;;5.17;2.83;;;13.90;99.90;;;;;;5043364;28;20240;-62
2021/11/24 02:13:25;;;;;;;9.23;2.80;;;13.90;99.90;;;;;;5063914;28;20700;-63
2021/11/24 02:15:51;;;;;;;6.87;3.00;;;13.90;99.90;;;;;;5069322;28;20195;-62
2021/11/24 02:18:17;;;;;;;8.60;3.83;;;14.00;99.90;;;;;;5063464;28;20721;-63
2021/11/24 02:20:45;;;;;;;3.90;2.93;;;13.90;99.90;;;;;;5066058;28;20767;-62
2021/11/24 02:23:14;;;;;;;8.57;3.20;;;13.90;99.90;;;;;;5062770;28;20215;-63
2021/11/24 02:25:43;;;;;;;8.63;3.00;;;13.90;99.90;;;;;;5059435;28;20225;-62
2021/11/24 02:28:12;;;;;;;8.60;3.20;;;13.90;99.90;;;;;;5061652;28;20348;-62
2021/11/24 02:30:38;;;;;;;4.67;3.53;;;13.90;99.90;;;;;;5080440;28;20195;-63
2021/11/24 02:33:05;;;;;;;5.30;3.10;;;13.90;99.90;;;;;;5048804;28;20199;-62
2021/11/24 02:35:32;;;;;;;7.43;3.20;;;13.90;99.90;;;;;;5054481;28;20752;-63
2021/11/24 02:38:02;;;;;;;6.07;3.70;;;13.90;99.90;;;;;;5055119;28;20194;-62
2021/11/24 02:40:34;;;;;;;4.67;3.20;;;13.90;99.90;;;;;;5058832;28;20278;-63
2021/11/24 02:43:02;;;;;;;5.27;2.90;;;13.90;99.90;;;;;;5058964;28;20194;-61
2021/11/24 02:45:29;;;;;;;12.70;3.87;;;14.00;99.90;;;;;;5056073;28;20200;-62
2021/11/24 02:47:55;;;;;;;10.20;3.90;;;14.00;99.90;;;;;;5057142;28;20762;-62
2021/11/24 02:50:22;;;;;;;8.33;3.00;;;14.00;99.90;;;;;;5032673;28;20861;-61
2021/11/24 02:52:48;;;;;;;5.23;3.60;;;14.00;99.90;;;;;;5058169;28;20198;-61
2021/11/24 02:55:16;;;;;;;4.63;3.23;;;13.90;99.90;;;;;;5058255;28;20194;-64
2021/11/24 02:57:48;;;;;;;6.53;3.77;;;14.00;99.90;;;;;;5050383;28;20207;-64
2021/11/24 03:00:20;;;;;;;8.03;3.60;;;14.00;99.90;;;;;;5059088;28;20332;-63
2021/11/24 03:02:48;;;;;;;5.73;3.70;;;14.00;99.90;;;;;;5064743;28;20195;-64
2021/11/24 03:05:19;;;;;;;6.23;3.40;;;13.90;99.90;;;;;;5065074;28;20811;-63
2021/11/24 03:07:45;;;;;;;5.30;3.63;;;13.90;99.90;;;;;;5061806;28;20210;-63
2021/11/24 03:10:12;;;;;;;7.93;4.10;;;13.90;99.90;;;;;;5066104;28;20282;-64
2021/11/24 03:12:39;;;;;;;5.67;3.57;;;13.90;99.90;;;;;;5056173;28;20199;-64
2021/11/24 03:15:07;;;;;;;6.43;4.00;;;13.90;99.90;;;;;;5058488;28;20184;-63
2021/11/24 03:17:34;;;;;;;4.87;4.07;;;13.90;99.90;;;;;;5053785;28;20194;-63
2021/11/24 03:20:02;;;;;;;7.50;4.33;;;13.90;99.90;;;;;;5056548;28;20246;-63
2021/11/24 03:22:28;;;;;;;9.07;4.00;;;13.90;99.90;;;;;;5060718;28;20567;-63
2021/11/24 03:24:57;;;;;;;11.47;4.00;;;14.00;99.90;;;;;;5061837;28;20217;-63
2021/11/24 03:27:28;;;;;;;7.37;4.23;;;14.00;99.90;;;;;;5062003;28;20599;-63
2021/11/24 03:29:55;;;;;;;6.87;4.23;;;14.00;99.90;;;;;;5055820;28;20187;-65
2021/11/24 03:32:22;;;;;;;10.70;4.27;;;14.00;99.90;;;;;;5062917;28;20226;-63
2021/11/24 03:34:48;;;;;;;8.40;4.10;;;14.00;99.90;;;;;;5055297;28;20227;-63
2021/11/24 03:37:17;;;;;;;5.60;3.83;;;14.00;99.90;;;;;;5047438;28;20282;-63
2021/11/24 03:39:45;;;;;;;8.30;4.10;;;14.00;99.90;;;;;;5047598;28;20937;-63
2021/11/24 03:42:12;;;;;;;6.20;4.23;;;14.00;99.90;;;;;;5052493;28;20199;-63
2021/11/24 03:44:38;;;;;;;6.23;4.40;;;14.00;99.90;;;;;;5051383;28;20191;-63
2021/11/24 03:47:05;;;;;;;6.83;4.43;;;14.00;99.90;;;;;;5050884;28;20215;-61
2021/11/24 03:49:31;;;;;;;8.60;4.33;;;14.00;99.90;;;;;;5062822;28;20223;-63
2021/11/24 03:51:57;;;;;;;7.33;4.60;;;14.00;99.90;;;;;;5062007;28;20191;-63
2021/11/24 03:54:24;;;;;;;5.40;3.63;;;13.90;99.90;;;;;;5061526;28;20195;-63
2021/11/24 03:56:50;;;;;;;8.57;4.13;;;13.90;99.90;;;;;;5053714;28;20187;-60
2021/11/24 03:59:17;;;;;;;11.70;4.67;;;13.90;99.90;;;;;;5057677;28;20183;-60
2021/11/24 04:01:43;;;;;;;7.23;4.10;;;13.90;99.90;;;;;;5062817;28;20259;-61
2021/11/24 04:04:09;;;;;;;5.83;4.07;;;13.90;99.90;;;;;;5060399;28;20191;-62
2021/11/24 04:06:36;;;;;;;8.43;4.00;;;13.90;99.90;;;;;;5057706;28;20241;-60
2021/11/24 04:09:03;;;;;;;9.87;4.47;;;13.90;99.90;;;;;;5056035;28;20682;-61
2021/11/24 04:11:29;;;;;;;5.80;4.00;;;13.80;99.90;;;;;;5055348;28;20198;-60
2021/11/24 04:13:56;;;;;;;8.67;4.93;;;13.80;99.90;;;;;;5053754;28;20225;-60
2021/11/24 04:16:22;;;;;;;5.73;4.50;;;13.80;99.90;;;;;;5053932;28;20190;-61
2021/11/24 04:18:49;;;;;;;10.97;4.50;;;13.80;99.90;;;;;;5054030;28;20202;-62
2021/11/24 04:21:17;;;;;;;7.40;5.00;;;13.80;99.90;;;;;;5055028;28;20194;-60
2021/11/24 04:23:45;;;;;;;10.03;4.80;;;13.70;99.90;;;;;;5046804;28;20352;-60
2021/11/24 04:26:12;;;;;;;7.80;4.63;;;13.70;99.90;;;;;;5049852;28;20201;-60
2021/11/24 04:28:39;;;;;;;8.77;4.53;;;13.70;99.90;;;;;;5054153;28;20306;-61
2021/11/24 04:31:08;;;;;;;6.87;4.60;;;13.80;99.90;;;;;;5057623;28;20336;-62
2021/11/24 04:33:36;;;;;;;10.17;4.60;;;13.80;99.90;;;;;;5064620;28;20273;-62
2021/11/24 04:36:04;;;;;;;6.97;4.87;;;13.70;99.90;;;;;;5068153;28;20198;-61
2021/11/24 04:38:31;;;;;;;10.13;5.47;;;13.70;99.90;;;;;;5055520;28;20581;-61
2021/11/24 04:40:57;;;;;;;7.70;4.70;;;13.70;99.90;;;;;;5056735;28;20203;-62
2021/11/24 04:43:28;;;;;;;7.03;4.90;;;13.70;99.90;;;;;;5055463;28;20198;-61
2021/11/24 04:45:56;;;;;;;9.13;5.40;;;13.70;99.90;;;;;;5058762;28;20194;-61
2021/11/24 04:48:23;;;;;;;7.83;5.10;;;13.60;99.90;;;;;;5056388;28;20812;-60
2021/11/24 04:50:49;;;;;;;9.33;4.90;;;13.60;99.90;;;;;;5055986;28;20199;-60
2021/11/24 04:53:15;;;;;;;8.53;5.30;;;13.60;99.90;;;;;;5063289;28;20207;-61
2021/11/24 04:55:42;;;;;;;12.90;5.83;;;13.50;99.90;;;;;;5058632;28;20701;-60
2021/11/24 04:58:08;;;;;;;7.13;4.93;;;13.50;99.90;;;;;;5059882;28;20211;-61
2021/11/24 05:00:34;;;;;;;8.77;5.03;;;13.60;99.90;;;;;;5058303;28;20291;-62
2021/11/24 05:03:00;;;;;;;9.57;5.90;;;13.60;99.90;;;;;;5057431;28;20193;-60
2021/11/24 05:05:30;;;;;;;9.27;6.00;;;13.60;99.90;;;;;;5061647;28;20269;-60
2021/11/24 05:07:57;;;;;;;9.60;5.80;;;13.60;99.90;;;;;;5065258;28;20692;-60
2021/11/24 05:10:24;;;;;;;12.23;5.73;;;13.60;99.90;;;;;;5066504;28;20643;-62
2021/11/24 05:12:51;;;;;;;11.27;5.90;;;13.60;99.90;;;;;;5060795;28;20191;-61
2021/11/24 05:15:25;;;;;;;9.03;5.40;;;13.60;99.90;;;;;;5060051;28;20191;-61
2021/11/24 05:17:57;;;;;;;8.60;6.23;;;13.60;99.90;;;;;;5057565;28;20644;-60
2021/11/24 05:20:26;;;;;;;10.00;5.53;;;13.60;99.90;;;;;;5061382;28;20187;-61
2021/11/24 05:22:54;;;;;;;7.00;5.73;;;13.50;99.90;;;;;;5058088;28;20218;-61
2021/11/24 05:25:20;;;;;;;10.23;6.13;;;13.50;99.90;;;;;;5059089;28;20241;-60
2021/11/24 05:27:47;;;;;;;9.17;6.20;;;13.50;99.90;;;;;;5057960;28;20208;-62
2021/11/24 05:30:13;;;;;;;8.30;6.20;;;13.60;99.90;;;;;;5059646;28;20191;-61
2021/11/24 05:32:40;;;;;;;14.10;6.50;;;13.60;99.90;;;;;;5062188;28;20757;-61
2021/11/24 05:35:07;;;;;;;12.33;6.00;;;13.70;99.90;;;;;;5060593;28;20536;-60
2021/11/24 05:37:33;;;;;;;8.43;6.40;;;13.70;99.90;;;;;;5054321;28;20289;-60
2021/11/24 05:40:00;;;;;;;11.97;6.53;;;13.70;99.90;;;;;;5066177;28;20263;-60
2021/11/24 05:42:27;;;;;;;8.03;6.07;;;13.70;99.90;;;;;;5062732;28;20744;-61
2021/11/24 05:45:03;;;;;;;10.17;5.70;;;13.80;99.90;;;;;;5060278;28;20268;-61
2021/11/24 05:50:37;;;;;;;9.00;6.13;;;13.80;99.90;;;;;;5040066;28;20913;-61
2021/11/24 05:53:04;;;;;;;9.67;6.10;;;13.90;99.90;;;;;;5037707;28;20188;-61
2021/11/24 05:55:31;;;;;;;11.50;6.50;;;14.00;99.90;;;;;;5058523;28;20207;-61
2021/11/24 05:57:57;;;;;;;11.03;6.27;;;14.00;99.90;;;;;;5064157;28;20236;-60
2021/11/24 06:00:24;;;;;;;10.90;6.37;;;14.00;99.90;;;;;;5053116;28;20191;-61
2021/11/24 06:02:50;;;;;;;14.50;6.83;;;14.10;99.90;;;;;;5055894;28;20691;-61
2021/11/24 06:05:16;;;;;;;10.27;6.40;;;14.10;99.90;;;;;;5053634;28;20195;-62
2021/11/24 06:07:45;;;;;;;10.60;6.53;;;14.20;99.90;;;;;;5065678;28;20716;-60
2021/11/24 06:10:12;;;;;;;8.23;6.47;;;14.20;99.90;;;;;;5066311;28;20277;-61
2021/11/24 06:12:39;;;;;;;10.03;6.80;;;14.30;99.90;;;;;;5058016;28;20642;-61
2021/11/24 06:15:07;;;;;;;10.67;6.40;;;14.30;99.90;;;;;;5063759;28;20190;-63
2021/11/24 06:17:33;;;;;;;11.57;6.13;;;14.40;99.90;;;;;;5063979;28;20187;-64
2021/11/24 06:20:00;;;;;;;11.20;6.20;;;14.40;99.90;;;;;;5062251;28;20702;-63
2021/11/24 06:22:26;;;;;;;11.33;6.90;;;14.50;99.90;;;;;;5057689;28;20214;-63
2021/11/24 06:24:52;;;;;;;9.53;6.83;;;14.50;99.90;;;;;;5057488;28;20469;-64
2021/11/24 06:27:19;;;;;;;8.40;6.00;;;14.60;99.90;;;;;;5066830;28;20683;-62
2021/11/24 06:29:45;;;;;;;10.77;6.43;;;14.60;99.90;;;;;;5058544;28;20198;-64
2021/11/24 06:32:11;;;;;;;10.37;5.93;;;14.70;99.90;;;;;;5058452;28;20509;-64
2021/11/24 06:34:38;;;;;;;12.57;6.80;;;14.70;99.90;;;;;;5058252;28;20231;-64
2021/11/24 06:37:04;;;;;;;10.87;6.70;;;14.70;99.90;;;;;;5051997;28;20199;-64
2021/11/24 06:39:30;;;;;;;10.80;7.03;;;14.80;99.90;;;;;;5056409;28;20189;-63
2021/11/24 06:41:58;;;;;;;11.37;6.43;;;14.80;99.90;;;;;;5072043;28;20208;-65
2021/11/24 06:44:25;;;;;;;8.47;6.50;;;14.90;99.90;;;;;;5064136;28;20197;-66
2021/11/24 06:46:52;;;;;;;14.03;6.73;;;14.90;99.90;;;;;;5054937;28;20740;-66
2021/11/24 06:49:18;;;;;;;9.77;6.67;;;14.90;99.90;;;;;;5057845;28;20280;-63
2021/11/24 06:51:44;;;;;;;8.50;6.23;;;15.00;99.90;;;;;;5052284;28;20563;-63
2021/11/24 06:54:11;;;;;;;10.67;7.23;;;15.00;99.90;;;;;;5061712;28;20639;-63
2021/11/24 06:56:37;;;;;;;6.50;5.67;;;15.10;99.90;;;;;;5052508;28;20186;-62
2021/11/24 06:59:04;;;;;;;11.90;6.43;;;15.10;99.90;;;;;;5060037;28;20207;-64
2021/11/24 07:01:32;;;;;;;10.73;6.50;;;15.20;99.90;;;;;;5062544;28;20306;-64
2021/11/24 07:03:58;;;;;;;9.07;6.40;;;15.20;99.90;;;;;;5054007;28;20194;-65
2021/11/24 07:06:24;;;;;;;7.40;6.20;;;15.20;99.90;;;;;;5050719;28;20199;-63
2021/11/24 07:08:51;;;;;;;10.00;6.33;;;15.30;99.90;;;;;;5065018;28;20214;-65
2021/11/24 07:11:17;;;;;;;9.47;5.97;;;15.40;99.90;;;;;;5060529;28;20506;-61
2021/11/24 07:13:43;;;;;;;10.27;5.90;;;15.40;99.90;;;;;;5055874;28;20189;-62
2021/11/24 07:16:10;;;;;;;7.67;5.90;;;15.50;99.90;;;;;;5064374;28;20185;-64
2021/11/24 07:18:36;;;;;;;12.00;5.97;;;15.50;99.90;;;;;;5056107;28;20911;-62
2021/11/24 07:21:03;;;;;;;7.17;5.87;;;15.70;99.90;;;;;;5064301;28;20191;-62
2021/11/24 07:23:29;;;;;;;7.13;5.30;;;15.70;99.90;;;;;;5053562;28;20222;-62
2021/11/24 07:25:55;;;;;;;7.63;5.10;;;15.70;99.90;;;;;;5052105;28;20194;-62
2021/11/24 07:28:22;;;;;;;9.10;4.83;;;15.70;99.90;;;;;;5064625;28;20780;-61
2021/11/24 07:30:48;;;;;;;7.37;5.03;;;15.70;99.90;;;;;;5061436;28;20187;-60
2021/11/24 07:33:14;;;;;;;4.90;4.33;;;15.60;99.90;;;;;;5040157;28;20194;-62
2021/11/24 07:35:41;;;;;;;7.80;4.13;;;15.70;99.90;;;;;;5051660;28;20191;-60
2021/11/24 07:38:07;;;;;;;5.57;3.70;;;15.70;99.90;;;;;;5058203;28;20191;-63
2021/11/24 07:40:33;;;;;;;7.13;4.00;;;15.70;99.90;;;;;;5064056;28;21042;-61
2021/11/24 07:42:59;;;;;;;6.03;4.83;;;15.70;99.90;;;;;;5064210;28;20674;-62
2021/11/24 07:45:26;;;;;;;7.17;5.27;;;15.80;99.90;;;;;;5055606;28;20639;-61
2021/11/24 07:47:52;;;;;;;8.60;5.07;;;15.80;99.90;;;;;;5051689;28;20202;-63
2021/11/24 07:50:18;;;;;;;5.33;4.83;;;15.90;99.90;;;;;;5054440;28;20189;-61
2021/11/24 07:52:45;;;;;;;8.13;4.90;;;15.80;99.90;;;;;;5060220;28;20190;-61
2021/11/24 07:55:11;;;;;;;7.13;4.97;;;15.80;99.90;;;;;;5058668;28;20188;-60
2021/11/24 07:57:38;;;;;;;5.10;4.43;;;15.90;99.90;;;;;;5059814;28;20202;-62
2021/11/24 08:00:07;;;;;;;9.63;5.57;;;15.90;99.90;;;;;;5053045;28;20816;-60
2021/11/24 08:02:33;;;;;;;6.90;5.07;;;16.00;99.90;;;;;;5049436;28;20256;-60
2021/11/24 08:04:59;;;;;;;6.73;4.93;;;16.10;99.90;;;;;;5051675;28;20310;-62
2021/11/24 08:07:25;;;;;;;9.73;4.97;;;16.10;99.90;;;;;;5050576;28;20185;-59
2021/11/24 08:09:52;;;;;;;8.03;5.20;;;16.20;99.90;;;;;;5056240;28;20531;-62
2021/11/24 08:12:18;;;;;;;11.37;5.43;;;16.20;99.90;;;;;;5053194;28;20184;-63
2021/11/24 08:14:44;;;;;;;9.33;5.73;;;16.20;99.90;;;;;;5063591;28;20850;-63
2021/11/24 08:17:11;;;;;;;6.03;5.03;;;16.20;99.90;;;;;;5060403;28;20186;-63
2021/11/24 08:19:37;;;;;;;6.30;4.90;;;16.20;99.90;;;;;;5055514;28;20191;-62
2021/11/24 08:22:03;;;;;;;6.93;5.07;;;16.30;99.90;;;;;;5051475;28;20194;-62
2021/11/24 08:24:30;;;;;;;8.00;5.13;;;16.30;99.90;;;;;;5053031;28;20256;-62
2021/11/24 08:26:56;;;;;;;7.33;5.47;;;16.40;99.90;;;;;;5056406;28;20247;-61
2021/11/24 08:29:23;;;;;;;6.83;5.00;;;16.50;99.90;;;;;;5067458;28;20233;-62
2021/11/24 08:31:49;;;;;;;10.13;5.20;;;16.50;99.90;;;;;;5059336;28;20190;-62
2021/11/24 08:34:16;;;;;;;9.63;5.40;;;16.60;99.90;;;;;;5053636;28;20202;-63
2021/11/24 08:36:42;;;;;;;6.80;5.13;;;16.60;99.90;;;;;;5065360;28;20210;-63
2021/11/24 08:39:09;;;;;;;9.00;5.23;;;16.70;99.90;;;;;;5059948;28;20203;-63
2021/11/24 08:41:35;;;;;;;10.77;4.93;;;16.80;99.90;;;;;;5056685;28;20218;-62
2021/11/24 08:44:02;;;;;;;10.77;5.17;;;16.90;99.90;;;;;;5060741;28;20251;-63
2021/11/24 08:46:28;;;;;;;10.53;5.03;;;16.90;99.90;;;;;;5061510;28;20277;-63
2021/11/24 08:48:54;;;;;;;10.53;5.17;;;17.00;99.90;;;;;;5058464;28;20293;-62
2021/11/24 08:51:21;;;;;;;7.93;4.93;;;17.10;99.90;;;;;;5061655;28;20217;-63
2021/11/24 08:53:48;;;;;;;7.67;4.77;;;17.10;99.90;;;;;;5057559;28;20647;-62
2021/11/24 08:56:14;;;;;;;8.03;4.73;;;17.10;99.90;;;;;;5061425;28;20191;-62
2021/11/24 08:58:41;;;;;;;6.40;4.53;;;17.10;99.90;;;;;;5058344;28;20202;-62
2021/11/24 09:01:08;;;;;;;9.10;4.60;;;17.20;99.90;;;;;;5060531;28;20191;-63
2021/11/24 09:03:34;;;;;;;5.27;4.53;;;17.30;99.90;;;;;;5064034;28;20199;-64
2021/11/24 09:06:03;;;;;;;11.73;4.63;;;17.30;99.90;;;;;;5062987;28;20225;-64
2021/11/24 09:08:30;;;;;;;6.03;4.73;;;17.30;99.90;;;;;;5053697;28;20261;-63
2021/11/24 09:10:57;;;;;;;6.60;4.53;;;17.40;99.90;;;;;;5061161;28;20183;-66
2021/11/24 09:13:24;;;;;;;6.93;4.83;;;17.40;99.90;;;;;;5066417;28;20612;-65
2021/11/24 09:15:50;;;;;;;7.60;4.20;;;17.40;99.90;;;;;;5065705;28;20237;-64
2021/11/24 09:18:16;;;;;;;4.23;3.63;;;17.50;99.90;;;;;;5061658;28;20180;-64
2021/11/24 09:20:43;;;;;;;7.70;4.60;;;17.60;99.90;;;;;;5060714;28;20225;-65
2021/11/24 09:23:12;;;;;;;7.97;4.57;;;17.60;99.90;;;;;;5061411;28;20221;-65
2021/11/24 09:28:42;;;;;;;8.87;4.13;;;17.60;99.90;;;;;;5042846;28;20226;-64
2021/11/24 09:31:09;;;;;;;5.33;3.83;;;17.70;99.90;;;;;;5052833;28;20207;-65
2021/11/24 09:33:37;;;;;;;5.70;3.90;;;17.70;99.90;;;;;;5059946;28;20184;-64
2021/11/24 09:36:04;;;;;;;6.50;3.97;;;17.80;99.90;;;;;;5060465;28;20190;-65
2021/11/24 09:38:31;;;;;;;5.03;3.30;;;17.80;99.90;;;;;;5058951;28;20701;-63
2021/11/24 09:41:05;;;;;;;6.77;3.80;;;17.90;99.90;;;;;;5060456;28;20662;-63
2021/11/24 09:43:38;;;;;;;6.33;3.87;;;17.90;99.90;;;;;;5060180;28;20190;-64
2021/11/24 09:46:05;;;;;;;6.57;3.70;;;18.00;99.90;;;;;;5057359;28;20195;-63
2021/11/24 09:48:32;;;;;;;6.17;4.20;;;18.00;99.90;;;;;;5059515;28;20279;-64
2021/11/24 09:51:01;;;;;;;5.30;3.90;;;18.00;99.90;;;;;;5058592;28;20225;-63
2021/11/24 09:53:30;;;;;;;4.97;3.50;;;17.90;99.90;;;;;;5060689;28;20187;-64
2021/11/24 09:55:56;;;;;;;5.23;3.73;;;18.00;99.90;;;;;;5060041;28;20184;-64
2021/11/24 09:58:22;;;;;;;7.97;4.07;;;18.10;99.90;;;;;;5056505;28;20216;-62
2021/11/24 10:00:49;;;;;;;5.93;3.80;;;18.10;99.90;;;;;;5044083;28;20655;-62
2021/11/24 10:03:17;;;;;;;4.60;3.93;;;18.20;99.90;;;;;;5056075;28;20218;-64
2021/11/24 10:05:47;;;;;;;6.30;3.70;;;18.30;99.90;;;;;;5053701;28;20199;-61
2021/11/24 10:08:14;;;;;;;5.03;3.70;;;18.60;99.90;;;;;;5062559;28;20781;-63
2021/11/24 10:10:40;;;;;;;8.40;3.63;;;18.80;99.90;;;;;;5056666;28;20200;-65
2021/11/24 10:13:07;;;;;;;4.57;3.30;;;18.90;99.90;;;;;;5057114;28;20179;-64
2021/11/24 10:15:42;;;;;;;5.40;3.50;;;19.00;99.90;;;;;;5059130;28;20874;-65
2021/11/24 10:18:17;;;;;;;4.23;3.40;;;19.20;99.90;;;;;;5059352;28;20213;-64
2021/11/24 10:20:53;;;;;;;7.97;3.67;;;19.40;99.90;;;;;;5056820;28;20190;-64
2021/11/24 10:23:42;;;;;;;6.17;4.13;;;20.70;99.90;;;;;;5054917;28;20750;-64
2021/11/24 10:26:29;;;;;;;8.07;3.93;;;21.70;99.90;;;;;;5061485;28;20183;-65
2021/11/24 10:29:12;;;;;;;7.57;3.80;;;21.40;99.90;;;;;;5052265;28;20702;-64
2021/11/24 10:31:44;;;;;;;4.47;3.27;;;23.10;99.90;;;;;;5062130;28;20205;-62
2021/11/24 10:34:20;;;;;;;5.57;3.73;;;23.80;99.90;;;;;;5062954;28;20183;-63
2021/11/24 10:37:07;;;;;;;4.77;3.53;;;22.90;99.90;;;;;;5057097;28;20179;-64
2021/11/24 10:39:55;;;;;;;8.40;3.50;;;22.20;99.90;;;;;;5052676;28;20192;-62
2021/11/24 10:42:43;;;;;;;5.33;3.70;;;21.80;99.90;;;;;;5062194;28;20411;-63
2021/11/24 10:45:14;;;;;;;5.33;3.70;;;21.70;99.90;;;;;;5053850;28;20730;-63
2021/11/24 10:47:55;;;;;;;5.67;3.37;;;21.90;99.90;;;;;;5060051;28;20199;-63
2021/11/24 10:50:32;;;;;;;7.00;3.37;;;22.10;99.90;;;;;;5042670;28;21043;-62
2021/11/24 10:52:59;;;;;;;6.13;3.53;;;22.20;99.90;;;;;;5051234;28;20214;-63
2021/11/24 10:55:34;;;;;;;4.63;3.53;;;22.00;99.90;;;;;;5059337;28;20223;-63
2021/11/24 10:58:19;;;;;;;6.53;3.43;;;21.70;99.90;;;;;;5059718;28;20613;-62
2021/11/24 11:00:55;;;;;;;5.63;3.53;;;21.40;99.90;;;;;;5051600;28;20278;-63
2021/11/24 11:03:41;;;;;;;4.17;3.53;;;21.10;99.90;;;;;;5054843;28;20778;-62
2021/11/24 11:06:07;;;;;;;6.40;3.50;;;20.90;99.90;;;;;;5056839;28;20225;-63
2021/11/24 11:08:34;;;;;;;8.13;3.57;;;20.70;99.90;;;;;;5060461;28;20214;-63
2021/11/24 11:11:05;;;;;;;15.27;3.60;;;20.70;99.90;;;;;;5052711;28;20920;-64
2021/11/24 11:13:32;;;;;;;3.83;3.23;;;20.70;99.90;;;;;;5053048;28;20721;-63
2021/11/24 11:15:59;;;;;;;4.63;3.47;;;20.60;99.90;;;;;;5058092;28;20191;-64
2021/11/24 11:18:32;;;;;;;6.23;3.50;;;20.60;99.90;;;;;;5066522;28;20197;-63
2021/11/24 11:21:02;;;;;;;3.53;2.83;;;20.50;99.90;;;;;;5056296;28;20186;-62
2021/11/24 11:23:36;;;;;;;7.93;3.40;;;20.60;99.90;;;;;;5059468;28;20881;-64
2021/11/24 11:26:11;;;;;;;7.63;3.30;;;20.60;99.90;;;;;;5063819;28;20690;-64
2021/11/24 11:28:46;;;;;;;4.27;3.40;;;20.50;99.90;;;;;;5066235;28;20218;-64
2021/11/24 11:31:17;;;;;;;4.50;3.27;;;20.30;99.90;;;;;;5050482;28;20205;-63
2021/11/24 11:33:49;;;;;;;8.87;3.17;;;20.40;99.90;;;;;;5064176;28;20186;-64
2021/11/24 11:36:17;;;;;;;7.13;3.20;;;20.40;99.90;;;;;;5059284;28;20218;-64
2021/11/24 11:38:48;;;;;;;6.43;3.20;;;20.40;99.90;;;;;;5063575;28;20953;-63
2021/11/24 11:41:22;;;;;;;5.80;3.77;;;20.30;99.90;;;;;;5058179;28;20223;-64
2021/11/24 11:43:53;;;;;;;5.60;3.73;;;20.30;99.90;;;;;;5051031;28;20207;-64
2021/11/24 11:46:23;;;;;;;11.33;3.97;;;20.20;99.90;;;;;;5049990;28;20182;-62
2021/11/24 11:48:53;;;;;;;5.53;3.80;;;20.20;99.90;;;;;;5043544;28;20549;-64
2021/11/24 11:51:39;;;;;;;4.73;3.63;;;20.30;99.90;;;;;;5053693;28;20651;-63
2021/11/24 11:54:08;;;;;;;9.53;3.97;;;20.30;99.90;;;;;;5056595;28;20184;-63
2021/11/24 11:56:44;;;;;;;7.20;3.80;;;20.30;99.90;;;;;;5060647;28;20186;-63
2021/11/24 11:59:31;;;;;;;5.83;3.60;;;20.30;99.90;;;;;;5059186;28;20202;-62
2021/11/24 12:02:04;;;;;;;5.80;3.93;;;20.30;99.90;;;;;;5059498;28;20198;-64
2021/11/24 12:04:47;;;;;;;4.83;3.53;;;20.20;99.90;;;;;;5063582;28;20701;-63
2021/11/24 12:07:19;;;;;;;4.07;3.57;;;20.20;99.90;;;;;;5055252;28;20738;-64
2021/11/24 12:09:48;;;;;;;5.77;3.63;;;20.10;99.90;;;;;;5062709;28;20215;-64
2021/11/24 12:12:35;;;;;;;7.00;3.90;;;20.10;99.90;;;;;;5063293;28;20802;-63
2021/11/24 12:15:32;;;;;;;5.83;3.90;;;20.10;99.90;;;;;;5069726;28;20202;-64
2021/11/24 12:18:14;;;;;;;4.67;3.93;;;20.00;99.90;;;;;;5055496;28;20202;-64
2021/11/24 12:20:45;;;;;;;5.43;4.27;;;19.90;99.90;;;;;;5055996;28;20522;-64
2021/11/24 12:23:18;;;;;;;5.57;4.00;;;19.90;99.90;;;;;;5054986;28;20214;-63
2021/11/24 12:25:46;;;;;;;4.63;3.63;;;19.80;99.90;;;;;;5055894;28;20206;-64
2021/11/24 12:28:16;;;;;;;4.43;3.50;;;19.80;99.90;;;;;;5064942;28;20245;-63
2021/11/24 12:33:39;;;;;;;8.63;3.80;;;19.70;99.90;;;;;;5058291;28;20245;-64
2021/11/24 12:36:09;;;;;;;6.30;3.83;;;19.70;99.90;;;;;;5067306;28;20653;-62
2021/11/24 12:38:41;;;;;;;5.60;3.50;;;19.60;99.90;;;;;;5059843;28;20190;-64
2021/11/24 12:41:15;;;;;;;9.07;3.60;;;19.60;99.90;;;;;;5064909;28;20195;-63
2021/11/24 12:44:02;;;;;;;6.23;3.73;;;19.40;99.90;;;;;;5063061;28;20195;-64
2021/11/24 12:46:34;;;;;;;10.70;4.60;;;19.40;99.90;;;;;;5059193;28;20198;-64
2021/11/24 12:49:11;;;;;;;5.17;4.00;;;19.30;99.90;;;;;;5067457;28;20207;-63
2021/11/24 12:51:50;;;;;;;4.40;4.00;;;19.30;99.90;;;;;;5060552;28;20217;-63
2021/11/24 12:54:29;;;;;;;8.57;4.13;;;19.40;99.90;;;;;;5055445;28;20195;-64
2021/11/24 12:57:00;;;;;;;5.77;4.30;;;19.40;99.90;;;;;;5055842;28;20612;-64
2021/11/24 12:59:36;;;;;;;7.17;4.47;;;19.40;99.90;;;;;;5054905;28;20191;-63
2021/11/24 13:02:14;;;;;;;6.30;4.47;;;19.30;99.90;;;;;;5061751;28;20186;-65